createdAt,value
2022-09-27T00:02:16.735Z,8.41
2022-09-27T00:12:22.499Z,8.52
2022-09-27T00:22:29.449Z,8.59
2022-09-27T00:32:35.197Z,8.61
2022-09-27T00:42:41.098Z,8.72
2022-09-27T00:52:55.258Z,8.83
2022-09-27T01:03:02.112Z,8.93
2022-09-27T01:13:20.394Z,9.03
2022-09-27T01:23:56.752Z,9.17
2022-09-27T01:34:08.691Z,9.30
2022-09-27T01:44:22.255Z,9.37
2022-09-27T01:54:33.958Z,9.42
2022-09-27T02:04:42.650Z,9.48
2022-09-27T02:14:54.002Z,9.40
2022-09-27T02:25:03.734Z,9.35
2022-09-27T02:35:14.861Z,9.30
2022-09-27T02:45:21.813Z,9.27
2022-09-27T02:55:38.731Z,9.13
2022-09-27T03:05:48.752Z,9.05
2022-09-27T03:15:57.031Z,9.03
2022-09-27T03:26:05.180Z,8.99
2022-09-27T03:36:12.573Z,8.92
2022-09-27T03:46:18.324Z,8.85
2022-09-27T03:56:23.942Z,8.81
2022-09-27T04:06:29.706Z,8.73
2022-09-27T04:16:35.617Z,8.69
2022-09-27T04:26:41.574Z,8.59
2022-09-27T04:36:47.286Z,8.56
2022-09-27T04:46:52.963Z,8.55
2022-09-27T04:56:58.785Z,8.48
2022-09-27T05:07:05.094Z,8.40
2022-09-27T05:17:10.862Z,8.52
2022-09-27T05:27:20.296Z,8.61
2022-09-27T05:37:26.023Z,8.67
2022-09-27T05:47:31.633Z,8.85
2022-09-27T05:57:37.169Z,9.01
2022-09-27T06:07:42.811Z,9.25
2022-09-27T06:17:48.487Z,9.47
2022-09-27T06:27:54.596Z,9.89
2022-09-27T06:38:03.657Z,10.19
2022-09-27T06:48:12.589Z,10.61
2022-09-27T06:58:36.178Z,11.04
2022-09-27T07:08:41.756Z,11.96
2022-09-27T07:18:48.708Z,13.81
2022-09-27T07:28:54.422Z,13.81
2022-09-27T07:39:01.284Z,13.91
2022-09-27T07:49:07.036Z,14.04
2022-09-27T07:59:12.628Z,13.91
2022-09-27T08:09:18.439Z,13.83
2022-09-27T08:19:24.159Z,13.92
2022-09-27T08:29:29.756Z,14.65
2022-09-27T08:39:35.601Z,15.13
2022-09-27T08:49:46.750Z,15.75
2022-09-27T09:00:07.215Z,16.57
2022-09-27T09:10:47.106Z,17.15
2022-09-27T09:21:04.667Z,17.11
2022-09-27T09:31:22.045Z,16.98
2022-09-27T09:41:33.682Z,16.95
2022-09-27T09:51:45.349Z,17.46
2022-09-27T10:01:51.273Z,16.86
2022-09-27T10:11:57.268Z,16.41
2022-09-27T10:22:13.318Z,16.24
2022-09-27T10:32:27.445Z,16.14
2022-09-27T10:42:38.691Z,15.74
2022-09-27T10:52:44.366Z,15.60
2022-09-27T11:02:55.339Z,15.49
2022-09-27T11:13:14.404Z,15.58
2022-09-27T11:23:43.110Z,15.57
2022-09-27T11:33:59.751Z,15.57
2022-09-27T11:44:35.565Z,15.53
2022-09-27T11:54:55.801Z,15.88
2022-09-27T12:05:17.788Z,16.11
2022-09-27T12:15:27.231Z,16.43
2022-09-27T12:25:37.233Z,16.60
2022-09-27T12:35:50.774Z,16.71
2022-09-27T12:46:07.016Z,16.82
2022-09-27T12:56:36.470Z,16.70
2022-09-27T13:06:59.130Z,16.60
2022-09-27T13:17:05.063Z,16.48
2022-09-27T13:27:38.648Z,16.64
2022-09-27T13:37:55.379Z,16.86
2022-09-27T13:48:02.899Z,16.92
2022-09-27T13:58:22.013Z,16.57
2022-09-27T14:08:33.526Z,16.37
2022-09-27T14:18:50.687Z,16.12
2022-09-27T14:28:56.605Z,16.05
2022-09-27T14:39:02.815Z,16.03
2022-09-27T14:49:23.129Z,15.84
2022-09-27T14:59:33.338Z,15.52
2022-09-27T15:09:40.639Z,15.29
2022-09-27T15:19:59.252Z,15.10
2022-09-27T15:30:05.701Z,14.96
2022-09-27T15:40:55.710Z,14.77
2022-09-27T15:51:03.317Z,14.56
2022-09-27T16:01:09.391Z,14.32
2022-09-27T16:11:17.862Z,14.14
2022-09-27T16:21:23.529Z,13.67
2022-09-27T16:31:29.262Z,13.12
2022-09-27T16:41:35.834Z,12.60
2022-09-27T16:51:58.890Z,12.20
2022-09-27T17:02:05.480Z,11.88
2022-09-27T17:12:12.042Z,11.71
2022-09-27T17:22:18.124Z,11.45
2022-09-27T17:32:24.743Z,11.08
2022-09-27T17:42:30.579Z,10.83
2022-09-27T17:52:36.441Z,10.74
2022-09-27T18:02:42.271Z,10.62
2022-09-27T18:12:47.989Z,10.47
2022-09-27T18:22:54.035Z,10.44
2022-09-27T18:32:59.795Z,10.44
2022-09-27T18:43:05.599Z,10.36
2022-09-27T18:53:11.282Z,10.30
2022-09-27T19:03:17.417Z,10.23
2022-09-27T19:13:27.808Z,10.20
2022-09-27T19:23:34.631Z,10.13
2022-09-27T19:33:40.502Z,10.05
2022-09-27T19:43:51.188Z,9.96
2022-09-27T19:53:56.992Z,9.93
2022-09-27T20:04:03.273Z,9.84
2022-09-27T20:14:09.216Z,9.78
2022-09-27T20:24:14.911Z,9.76
2022-09-27T20:34:20.918Z,9.76
2022-09-27T20:44:26.567Z,9.78
2022-09-27T20:54:33.060Z,9.78
2022-09-27T21:04:38.705Z,9.80
2022-09-27T21:14:44.398Z,9.79
2022-09-27T21:24:50.140Z,9.77
2022-09-27T21:34:56.003Z,9.75
2022-09-27T21:45:01.718Z,9.75
2022-09-27T21:55:09.038Z,9.77
2022-09-27T22:05:14.952Z,9.80
2022-09-27T22:15:22.245Z,9.79
2022-09-27T22:25:29.341Z,9.82
2022-09-27T22:35:35.131Z,9.88
2022-09-27T22:45:40.868Z,9.92
2022-09-27T22:55:57.425Z,9.93
2022-09-27T23:06:07.486Z,9.80
2022-09-27T23:16:14.595Z,9.65
2022-09-27T23:26:24.085Z,9.46
2022-09-27T23:36:30.097Z,9.31
2022-09-27T23:46:37.426Z,9.21
2022-09-27T23:56:43.437Z,9.04
